createdAt,value
2018-09-23T00:03:40.772Z,70.40
2018-09-23T00:07:44.464Z,69.50
2018-09-23T00:11:48.136Z,69.10
2018-09-23T00:15:51.808Z,69.00
2018-09-23T00:19:55.488Z,68.90
2018-09-23T00:23:59.183Z,69.20
2018-09-23T00:28:02.993Z,69.20
2018-09-23T00:32:06.797Z,69.60
2018-09-23T00:36:10.452Z,69.00
2018-09-23T00:40:14.149Z,69.00
2018-09-23T00:44:17.840Z,69.70
2018-09-23T00:48:21.531Z,69.00
2018-09-23T00:52:25.266Z,69.50
2018-09-23T00:56:29.959Z,68.90
2018-09-23T01:00:33.656Z,69.20
2018-09-23T01:04:37.491Z,68.80
2018-09-23T01:08:41.160Z,69.70
2018-09-23T01:12:44.849Z,69.30
2018-09-23T01:16:48.580Z,69.10
2018-09-23T01:20:52.263Z,69.40
2018-09-23T01:24:56.805Z,68.90
2018-09-23T01:29:00.520Z,69.70
2018-09-23T01:33:10.688Z,71.00
2018-09-23T01:37:14.356Z,69.10
2018-09-23T01:41:18.007Z,70.10
2018-09-23T01:45:21.732Z,69.30
2018-09-23T01:49:25.503Z,69.60
2018-09-23T01:53:29.229Z,69.80
2018-09-23T01:57:32.948Z,69.20
2018-09-23T02:01:36.677Z,69.10
2018-09-23T02:05:40.369Z,69.30
2018-09-23T02:09:44.150Z,69.10
2018-09-23T02:13:47.867Z,69.40
2018-09-23T02:17:51.703Z,70.20
2018-09-23T02:21:55.368Z,69.90
2018-09-23T02:25:59.057Z,69.90
2018-09-23T02:30:02.767Z,69.20
2018-09-23T02:34:06.541Z,70.00
2018-09-23T02:38:10.228Z,69.10
2018-09-23T02:42:13.924Z,69.80
2018-09-23T02:46:17.657Z,69.50
2018-09-23T02:50:21.379Z,69.00
2018-09-23T02:54:25.072Z,69.20
2018-09-23T02:58:28.791Z,68.60
2018-09-23T03:02:32.473Z,69.40
2018-09-23T03:06:36.125Z,69.60
2018-09-23T03:10:39.815Z,68.40
2018-09-23T03:14:43.605Z,69.70
2018-09-23T03:18:47.361Z,69.20
2018-09-23T03:22:51.200Z,69.00
2018-09-23T03:26:54.845Z,69.20
2018-09-23T03:30:58.619Z,69.10
2018-09-23T03:35:02.297Z,68.90
2018-09-23T03:39:07.151Z,68.90
2018-09-23T03:43:10.865Z,69.10
2018-09-23T03:47:14.626Z,69.00
2018-09-23T03:51:18.306Z,69.00
2018-09-23T03:55:21.978Z,68.90
2018-09-23T03:59:25.658Z,68.90
2018-09-23T04:03:29.349Z,69.00
2018-09-23T04:07:33.016Z,69.10
2018-09-23T04:11:36.665Z,70.00
2018-09-23T04:15:40.325Z,68.90
2018-09-23T04:19:44.129Z,69.40
2018-09-23T04:23:47.873Z,69.20
2018-09-23T04:27:51.743Z,69.90
2018-09-23T04:31:55.423Z,69.60
2018-09-23T04:35:59.434Z,69.20
2018-09-23T04:40:03.312Z,69.60
2018-09-23T04:44:07.071Z,69.30
2018-09-23T04:48:10.803Z,69.00
2018-09-23T04:52:14.452Z,68.90
2018-09-23T04:56:18.265Z,68.90
2018-09-23T05:00:22.060Z,69.50
2018-09-23T05:04:25.891Z,69.30
2018-09-23T05:08:29.578Z,69.60
2018-09-23T05:12:33.208Z,69.20
2018-09-23T05:16:36.970Z,70.00
2018-09-23T05:20:40.724Z,69.20
2018-09-23T05:24:44.418Z,69.50
2018-09-23T05:28:48.104Z,69.20
2018-09-23T05:32:51.772Z,69.30
2018-09-23T05:36:55.440Z,69.20
2018-09-23T05:40:59.191Z,69.10
2018-09-23T05:45:02.860Z,69.10
2018-09-23T05:49:06.903Z,69.00
2018-09-23T05:53:10.613Z,69.10
2018-09-23T05:57:14.232Z,69.00
2018-09-23T06:01:17.968Z,69.00
2018-09-23T06:05:21.669Z,69.00
2018-09-23T06:09:25.385Z,69.00
2018-09-23T06:13:29.066Z,69.70
2018-09-23T06:17:32.708Z,69.20
2018-09-23T06:21:36.376Z,69.10
2018-09-23T06:25:40.090Z,69.00
2018-09-23T06:29:43.760Z,69.20
2018-09-23T06:33:47.485Z,69.70
2018-09-23T06:37:51.147Z,69.80
2018-09-23T06:41:54.837Z,70.40
2018-09-23T06:45:58.524Z,70.60
2018-09-23T06:50:02.194Z,69.60
2018-09-23T06:54:05.879Z,69.30
2018-09-23T06:58:09.568Z,70.50
2018-09-23T07:02:13.217Z,69.80
2018-09-23T07:06:16.933Z,69.10
2018-09-23T07:10:20.655Z,69.40
2018-09-23T07:14:24.384Z,69.90
2018-09-23T07:18:28.143Z,69.60
2018-09-23T07:22:31.791Z,69.20
2018-09-23T07:26:35.529Z,69.30
2018-09-23T07:30:39.316Z,69.80
2018-09-23T07:34:43.037Z,70.60
2018-09-23T07:38:46.771Z,69.40
2018-09-23T07:42:50.408Z,70.00
2018-09-23T07:46:54.179Z,70.30
2018-09-23T07:50:57.852Z,69.40
2018-09-23T07:55:01.519Z,70.00
2018-09-23T07:59:05.204Z,69.50
2018-09-23T08:03:08.855Z,70.40
2018-09-23T08:07:12.516Z,70.10
2018-09-23T08:11:16.205Z,69.30
2018-09-23T08:15:19.932Z,70.00
2018-09-23T08:19:23.675Z,69.90
2018-09-23T08:23:27.344Z,69.10
2018-09-23T08:27:31.037Z,68.60
2018-09-23T08:31:34.875Z,69.30
2018-09-23T08:35:38.717Z,68.90
2018-09-23T08:39:42.713Z,68.70
2018-09-23T08:43:47.983Z,68.80
2018-09-23T08:47:51.619Z,69.40
2018-09-23T08:51:55.429Z,69.40
2018-09-23T08:55:59.034Z,69.30
2018-09-23T09:00:02.707Z,69.30
2018-09-23T09:04:06.513Z,69.20
2018-09-23T09:08:10.149Z,69.40
2018-09-23T09:12:13.825Z,69.50
2018-09-23T09:16:17.509Z,69.70
2018-09-23T09:20:21.191Z,69.70
2018-09-23T09:24:24.872Z,69.20
2018-09-23T09:28:28.524Z,69.20
2018-09-23T09:32:32.231Z,69.10
2018-09-23T09:36:35.888Z,69.20
2018-09-23T09:40:39.576Z,69.60
2018-09-23T09:44:43.276Z,69.70
2018-09-23T09:48:46.913Z,69.20
2018-09-23T09:52:50.606Z,69.40
2018-09-23T09:56:54.287Z,69.10
2018-09-23T10:00:58.065Z,69.10
2018-09-23T10:05:01.814Z,69.00
2018-09-23T10:09:07.783Z,69.10
2018-09-23T10:13:11.457Z,69.30
2018-09-23T10:17:15.140Z,69.30
2018-09-23T10:21:18.876Z,69.40
2018-09-23T10:25:22.580Z,69.20
2018-09-23T10:29:26.222Z,68.50
2018-09-23T10:33:29.921Z,69.10
2018-09-23T10:37:33.596Z,69.40
2018-09-23T10:41:37.274Z,69.40
2018-09-23T10:45:40.980Z,69.90
2018-09-23T10:49:44.624Z,69.50
2018-09-23T10:53:48.302Z,70.00
2018-09-23T10:57:52.048Z,69.70
2018-09-23T11:01:55.788Z,69.80
2018-09-23T11:05:59.529Z,69.60
2018-09-23T11:10:03.172Z,70.00
2018-09-23T11:14:06.847Z,70.00
2018-09-23T11:18:10.508Z,69.70
2018-09-23T11:22:14.192Z,69.50
2018-09-23T11:26:17.869Z,69.90
2018-09-23T11:30:21.519Z,70.00
2018-09-23T11:34:25.327Z,70.00
2018-09-23T11:38:29.011Z,70.30
2018-09-23T11:42:32.672Z,69.90
2018-09-23T11:46:36.407Z,70.20
2018-09-23T11:50:40.134Z,69.80
2018-09-23T11:54:43.860Z,70.00
2018-09-23T11:58:47.591Z,70.10
2018-09-23T12:02:51.315Z,69.90
2018-09-23T12:06:54.992Z,70.70
2018-09-23T12:10:58.765Z,70.30
2018-09-23T12:15:02.417Z,70.40
2018-09-23T12:19:06.194Z,70.30
2018-09-23T12:23:09.853Z,72.30
2018-09-23T12:27:13.654Z,71.20
2018-09-23T12:31:18.137Z,71.00
2018-09-23T12:35:21.852Z,70.40
2018-09-23T12:39:29.166Z,73.00
2018-09-23T12:43:32.854Z,71.90
2018-09-23T12:47:36.617Z,73.10
2018-09-23T12:51:40.314Z,72.10
2018-09-23T12:55:44.007Z,72.10
2018-09-23T12:59:47.684Z,72.30
2018-09-23T13:03:51.370Z,73.40
2018-09-23T13:07:55.055Z,72.60
2018-09-23T13:11:58.751Z,72.70
2018-09-23T13:16:02.469Z,72.20
2018-09-23T13:20:06.336Z,72.20
2018-09-23T13:24:09.994Z,73.20
2018-09-23T13:28:13.628Z,72.60
2018-09-23T13:32:17.324Z,71.70
2018-09-23T13:36:21.019Z,72.10
2018-09-23T13:40:24.699Z,71.90
2018-09-23T13:44:28.367Z,71.30
2018-09-23T13:48:32.040Z,71.40
2018-09-23T13:52:35.840Z,72.50
2018-09-23T13:56:39.619Z,72.90
2018-09-23T14:00:43.311Z,71.90
2018-09-23T14:04:47.022Z,71.90
2018-09-23T14:08:50.732Z,72.20
2018-09-23T14:12:54.411Z,72.70
2018-09-23T14:16:58.098Z,73.20
2018-09-23T14:21:01.796Z,72.20
2018-09-23T14:25:05.523Z,72.60
2018-09-23T14:29:09.335Z,73.40
2018-09-23T14:33:13.069Z,72.50
2018-09-23T14:37:16.739Z,72.60
2018-09-23T14:41:20.371Z,72.60
2018-09-23T14:45:24.033Z,72.20
2018-09-23T14:49:27.724Z,73.50
2018-09-23T14:53:31.363Z,72.50
2018-09-23T14:57:35.012Z,72.50
2018-09-23T15:01:38.723Z,73.20
2018-09-23T15:05:42.381Z,72.30
2018-09-23T15:09:46.072Z,73.50
2018-09-23T15:13:49.784Z,72.60
2018-09-23T15:17:53.364Z,72.80
2018-09-23T15:21:57.191Z,73.20
2018-09-23T15:26:00.827Z,72.60
2018-09-23T15:30:04.545Z,73.10
2018-09-23T15:34:08.291Z,72.50
2018-09-23T15:38:11.908Z,72.90
2018-09-23T15:42:15.585Z,74.20
2018-09-23T15:46:19.240Z,72.90
2018-09-23T15:50:22.892Z,73.70
2018-09-23T15:54:26.600Z,73.00
2018-09-23T15:58:30.477Z,73.40
2018-09-23T16:02:34.127Z,73.40
2018-09-23T16:06:37.788Z,72.80
2018-09-23T16:10:41.487Z,72.20
2018-09-23T16:14:45.681Z,72.80
2018-09-23T16:18:49.470Z,73.20
2018-09-23T16:22:53.036Z,73.20
2018-09-23T16:26:56.724Z,74.20
2018-09-23T16:31:00.440Z,73.60
2018-09-23T16:35:04.195Z,73.40
2018-09-23T16:39:09.458Z,74.10
2018-09-23T16:43:13.210Z,74.30
2018-09-23T16:47:16.867Z,74.90
2018-09-23T16:51:20.569Z,74.80
2018-09-23T16:55:24.224Z,74.10
2018-09-23T16:59:27.853Z,74.40
2018-09-23T17:03:31.625Z,75.50
2018-09-23T17:07:35.265Z,74.70
2018-09-23T17:11:39.201Z,75.40
2018-09-23T17:15:42.877Z,74.40
2018-09-23T17:19:46.500Z,74.50
2018-09-23T17:23:50.146Z,74.80
2018-09-23T17:27:54.603Z,74.90
2018-09-23T17:31:58.288Z,76.30
2018-09-23T17:36:01.958Z,75.30
2018-09-23T17:40:05.673Z,74.80
2018-09-23T17:44:09.431Z,76.20
2018-09-23T17:48:13.215Z,74.80
2018-09-23T17:52:16.949Z,74.80
2018-09-23T17:56:20.607Z,74.20
2018-09-23T18:00:24.249Z,74.50
2018-09-23T18:04:27.900Z,74.90
2018-09-23T18:08:31.569Z,74.70
2018-09-23T18:12:35.252Z,73.90
2018-09-23T18:16:39.064Z,73.00
2018-09-23T18:20:42.711Z,73.60
2018-09-23T18:24:46.365Z,73.50
2018-09-23T18:28:50.285Z,73.80
2018-09-23T18:32:54.044Z,74.30
2018-09-23T18:36:57.795Z,74.20
2018-09-23T18:41:01.428Z,74.60
2018-09-23T18:45:05.172Z,74.80
2018-09-23T18:49:08.834Z,74.50
2018-09-23T18:53:17.774Z,74.60
2018-09-23T18:57:21.441Z,74.70
2018-09-23T19:01:25.075Z,74.70
2018-09-23T19:05:28.737Z,75.10
2018-09-23T19:09:32.409Z,75.60
2018-09-23T19:13:41.387Z,74.70
2018-09-23T19:17:45.045Z,75.00
2018-09-23T19:21:48.672Z,75.90
2018-09-23T19:25:52.323Z,76.20
2018-09-23T19:29:55.980Z,75.40
2018-09-23T19:33:59.792Z,75.70
2018-09-23T19:38:03.461Z,75.20
2018-09-23T19:42:07.461Z,75.10
2018-09-23T19:46:11.116Z,77.10
2018-09-23T19:50:14.808Z,75.80
2018-09-23T19:54:18.463Z,75.80
2018-09-23T19:58:22.123Z,75.40
2018-09-23T20:02:25.747Z,76.50
2018-09-23T20:06:29.468Z,76.40
2018-09-23T20:10:33.194Z,75.30
2018-09-23T20:14:36.860Z,77.30
2018-09-23T20:18:40.525Z,76.00
2018-09-23T20:22:44.241Z,77.70
2018-09-23T20:26:47.896Z,78.50
2018-09-23T20:30:51.549Z,77.40
2018-09-23T20:34:55.256Z,78.10
2018-09-23T20:38:58.947Z,77.90
2018-09-23T20:43:02.672Z,78.60
2018-09-23T20:47:06.508Z,78.00
2018-09-23T20:51:10.209Z,78.40
2018-09-23T20:55:14.193Z,79.00
2018-09-23T20:59:17.919Z,77.90
2018-09-23T21:03:21.566Z,77.50
2018-09-23T21:07:25.236Z,77.90
2018-09-23T21:11:28.914Z,78.40
2018-09-23T21:15:32.573Z,79.20
2018-09-23T21:19:36.377Z,78.70
2018-09-23T21:23:40.001Z,78.30
2018-09-23T21:27:43.672Z,78.00
2018-09-23T21:31:47.365Z,78.20
2018-09-23T21:35:51.027Z,78.10
2018-09-23T21:39:54.689Z,78.30
2018-09-23T21:43:58.371Z,78.40
2018-09-23T21:48:02.329Z,77.00
2018-09-23T21:52:05.997Z,77.60
2018-09-23T21:56:09.690Z,77.80
2018-09-23T22:00:13.351Z,76.80
2018-09-23T22:04:16.989Z,76.90
2018-09-23T22:08:20.640Z,78.30
2018-09-23T22:12:24.340Z,77.40
2018-09-23T22:16:28.068Z,76.90
2018-09-23T22:20:31.723Z,77.50
2018-09-23T22:24:35.482Z,77.50
2018-09-23T22:28:39.143Z,75.80
2018-09-23T22:32:42.828Z,75.80
2018-09-23T22:36:46.520Z,76.70
2018-09-23T22:40:50.176Z,77.10
2018-09-23T22:44:53.838Z,77.20
2018-09-23T22:48:57.487Z,76.90
2018-09-23T22:53:01.161Z,76.60
2018-09-23T22:57:04.832Z,77.30
2018-09-23T23:01:08.515Z,77.70
2018-09-23T23:05:12.123Z,77.70
2018-09-23T23:09:15.766Z,76.60
2018-09-23T23:13:19.533Z,77.50
2018-09-23T23:17:23.217Z,77.40
2018-09-23T23:21:26.908Z,77.30
2018-09-23T23:25:30.628Z,78.10
2018-09-23T23:29:34.333Z,77.50
2018-09-23T23:33:38.017Z,77.80
2018-09-23T23:37:41.688Z,77.90
2018-09-23T23:41:45.356Z,78.00
2018-09-23T23:45:48.993Z,78.10
2018-09-23T23:49:52.659Z,77.70
2018-09-23T23:53:56.380Z,78.00
2018-09-23T23:58:00.049Z,77.70
